sensor_id;sensor_type;location;lat;lon;timestamp;P1;durP1;ratioP1;P2;durP2;ratioP2
38851;SDS011;24605;50.092;9.182;2023-06-22T00:01:10;10.40;;;6.85;;
38851;SDS011;24605;50.092;9.182;2023-06-22T00:03:37;10.02;;;7.07;;
38851;SDS011;24605;50.092;9.182;2023-06-22T00:06:03;11.75;;;7.15;;
38851;SDS011;24605;50.092;9.182;2023-06-22T00:08:30;12.18;;;7.30;;
38851;SDS011;24605;50.092;9.182;2023-06-22T00:10:57;10.55;;;7.47;;
38851;SDS011;24605;50.092;9.182;2023-06-22T00:13:24;10.02;;;7.20;;
38851;SDS011;24605;50.092;9.182;2023-06-22T00:15:50;11.05;;;7.80;;
38851;SDS011;24605;50.092;9.182;2023-06-22T00:18:17;10.77;;;7.38;;
38851;SDS011;24605;50.092;9.182;2023-06-22T00:20:43;10.88;;;7.57;;
38851;SDS011;24605;50.092;9.182;2023-06-22T00:23:10;9.40;;;7.22;;
38851;SDS011;24605;50.092;9.182;2023-06-22T00:25:38;12.35;;;7.78;;
38851;SDS011;24605;50.092;9.182;2023-06-22T00:28:07;10.82;;;7.63;;
38851;SDS011;24605;50.092;9.182;2023-06-22T00:30:34;11.13;;;7.80;;
38851;SDS011;24605;50.092;9.182;2023-06-22T00:33:01;10.07;;;7.38;;
38851;SDS011;24605;50.092;9.182;2023-06-22T00:35:28;11.15;;;7.95;;
38851;SDS011;24605;50.092;9.182;2023-06-22T00:37:54;10.23;;;7.75;;
38851;SDS011;24605;50.092;9.182;2023-06-22T00:40:26;10.13;;;7.60;;
38851;SDS011;24605;50.092;9.182;2023-06-22T00:42:53;9.15;;;7.15;;
38851;SDS011;24605;50.092;9.182;2023-06-22T00:45:24;10.38;;;7.50;;
38851;SDS011;24605;50.092;9.182;2023-06-22T00:47:51;10.75;;;7.55;;
38851;SDS011;24605;50.092;9.182;2023-06-22T00:50:20;11.65;;;7.63;;
38851;SDS011;24605;50.092;9.182;2023-06-22T00:52:48;11.65;;;7.43;;
38851;SDS011;24605;50.092;9.182;2023-06-22T00:55:17;9.85;;;7.40;;
38851;SDS011;24605;50.092;9.182;2023-06-22T00:57:45;14.52;;;7.40;;
38851;SDS011;24605;50.092;9.182;2023-06-22T01:00:12;12.73;;;7.70;;
38851;SDS011;24605;50.092;9.182;2023-06-22T01:02:43;10.88;;;7.45;;
38851;SDS011;24605;50.092;9.182;2023-06-22T01:05:11;11.52;;;7.95;;
38851;SDS011;24605;50.092;9.182;2023-06-22T01:07:39;11.77;;;8.10;;
38851;SDS011;24605;50.092;9.182;2023-06-22T01:10:14;12.20;;;7.22;;
38851;SDS011;24605;50.092;9.182;2023-06-22T01:12:48;12.23;;;7.68;;
38851;SDS011;24605;50.092;9.182;2023-06-22T01:15:30;9.85;;;7.22;;
38851;SDS011;24605;50.092;9.182;2023-06-22T01:18:00;12.32;;;7.85;;
38851;SDS011;24605;50.092;9.182;2023-06-22T01:20:30;10.88;;;7.68;;
38851;SDS011;24605;50.092;9.182;2023-06-22T01:23:02;10.43;;;7.60;;
38851;SDS011;24605;50.092;9.182;2023-06-22T01:25:36;10.48;;;8.05;;
38851;SDS011;24605;50.092;9.182;2023-06-22T01:28:13;11.05;;;7.78;;
38851;SDS011;24605;50.092;9.182;2023-06-22T01:30:50;16.08;;;8.20;;
38851;SDS011;24605;50.092;9.182;2023-06-22T01:33:25;10.80;;;8.05;;
38851;SDS011;24605;50.092;9.182;2023-06-22T01:35:53;11.63;;;7.40;;
38851;SDS011;24605;50.092;9.182;2023-06-22T01:38:19;9.48;;;7.32;;
38851;SDS011;24605;50.092;9.182;2023-06-22T01:40:47;9.50;;;7.88;;
38851;SDS011;24605;50.092;9.182;2023-06-22T01:43:15;12.40;;;7.53;;
38851;SDS011;24605;50.092;9.182;2023-06-22T01:45:43;10.27;;;7.45;;
38851;SDS011;24605;50.092;9.182;2023-06-22T01:48:11;12.98;;;8.48;;
38851;SDS011;24605;50.092;9.182;2023-06-22T01:50:38;13.63;;;8.07;;
38851;SDS011;24605;50.092;9.182;2023-06-22T01:53:06;11.10;;;7.97;;
38851;SDS011;24605;50.092;9.182;2023-06-22T01:55:33;10.73;;;8.02;;
38851;SDS011;24605;50.092;9.182;2023-06-22T01:57:59;13.65;;;8.68;;
38851;SDS011;24605;50.092;9.182;2023-06-22T02:00:26;12.32;;;9.15;;
38851;SDS011;24605;50.092;9.182;2023-06-22T02:02:59;12.40;;;8.68;;
38851;SDS011;24605;50.092;9.182;2023-06-22T02:05:33;12.25;;;9.10;;
38851;SDS011;24605;50.092;9.182;2023-06-22T02:08:05;13.02;;;9.25;;
38851;SDS011;24605;50.092;9.182;2023-06-22T02:10:34;11.95;;;9.60;;
38851;SDS011;24605;50.092;9.182;2023-06-22T02:13:04;13.32;;;9.55;;
38851;SDS011;24605;50.092;9.182;2023-06-22T02:15:32;11.13;;;8.95;;
38851;SDS011;24605;50.092;9.182;2023-06-22T02:17:59;18.33;;;9.93;;
38851;SDS011;24605;50.092;9.182;2023-06-22T02:20:26;12.75;;;9.30;;
38851;SDS011;24605;50.092;9.182;2023-06-22T02:22:53;12.60;;;9.32;;
38851;SDS011;24605;50.092;9.182;2023-06-22T02:25:20;14.40;;;9.65;;
38851;SDS011;24605;50.092;9.182;2023-06-22T02:27:46;13.43;;;9.85;;
38851;SDS011;24605;50.092;9.182;2023-06-22T02:30:13;12.88;;;10.23;;
38851;SDS011;24605;50.092;9.182;2023-06-22T02:32:41;11.63;;;9.38;;
38851;SDS011;24605;50.092;9.182;2023-06-22T02:35:07;11.77;;;9.30;;
38851;SDS011;24605;50.092;9.182;2023-06-22T02:37:35;14.07;;;9.90;;
38851;SDS011;24605;50.092;9.182;2023-06-22T02:40:06;13.85;;;9.25;;
38851;SDS011;24605;50.092;9.182;2023-06-22T02:42:33;11.82;;;9.45;;
38851;SDS011;24605;50.092;9.182;2023-06-22T02:45:00;12.35;;;8.80;;
38851;SDS011;24605;50.092;9.182;2023-06-22T02:47:26;12.00;;;9.68;;
38851;SDS011;24605;50.092;9.182;2023-06-22T02:49:53;13.25;;;9.95;;
38851;SDS011;24605;50.092;9.182;2023-06-22T02:52:20;13.05;;;9.23;;
38851;SDS011;24605;50.092;9.182;2023-06-22T02:54:46;14.55;;;10.07;;
38851;SDS011;24605;50.092;9.182;2023-06-22T02:57:14;14.50;;;9.77;;
38851;SDS011;24605;50.092;9.182;2023-06-22T02:59:40;11.38;;;9.05;;
38851;SDS011;24605;50.092;9.182;2023-06-22T03:02:08;12.07;;;9.18;;
38851;SDS011;24605;50.092;9.182;2023-06-22T03:04:35;13.13;;;9.65;;
38851;SDS011;24605;50.092;9.182;2023-06-22T03:07:02;12.90;;;10.00;;
38851;SDS011;24605;50.092;9.182;2023-06-22T03:09:28;12.07;;;9.65;;
38851;SDS011;24605;50.092;9.182;2023-06-22T03:11:55;10.65;;;9.25;;
38851;SDS011;24605;50.092;9.182;2023-06-22T03:14:23;18.20;;;9.32;;
38851;SDS011;24605;50.092;9.182;2023-06-22T03:16:49;12.65;;;10.32;;
38851;SDS011;24605;50.092;9.182;2023-06-22T03:19:16;12.60;;;10.13;;
38851;SDS011;24605;50.092;9.182;2023-06-22T03:21:42;12.32;;;9.57;;
38851;SDS011;24605;50.092;9.182;2023-06-22T03:24:09;12.82;;;9.45;;
38851;SDS011;24605;50.092;9.182;2023-06-22T03:26:35;14.02;;;10.10;;
38851;SDS011;24605;50.092;9.182;2023-06-22T03:29:02;13.50;;;9.82;;
38851;SDS011;24605;50.092;9.182;2023-06-22T03:31:30;12.27;;;9.57;;
38851;SDS011;24605;50.092;9.182;2023-06-22T03:33:56;14.98;;;8.88;;
38851;SDS011;24605;50.092;9.182;2023-06-22T03:36:24;12.13;;;10.10;;
38851;SDS011;24605;50.092;9.182;2023-06-22T03:38:51;12.52;;;9.93;;
38851;SDS011;24605;50.092;9.182;2023-06-22T03:41:17;13.15;;;10.25;;
38851;SDS011;24605;50.092;9.182;2023-06-22T03:43:44;11.63;;;9.30;;
38851;SDS011;24605;50.092;9.182;2023-06-22T03:46:10;12.25;;;9.43;;
38851;SDS011;24605;50.092;9.182;2023-06-22T03:48:38;12.23;;;9.50;;
38851;SDS011;24605;50.092;9.182;2023-06-22T03:51:05;11.68;;;8.95;;
38851;SDS011;24605;50.092;9.182;2023-06-22T03:53:31;12.90;;;9.95;;
38851;SDS011;24605;50.092;9.182;2023-06-22T03:55:58;11.48;;;9.73;;
38851;SDS011;24605;50.092;9.182;2023-06-22T03:58:24;14.57;;;10.25;;
38851;SDS011;24605;50.092;9.182;2023-06-22T04:00:51;13.15;;;9.60;;
38851;SDS011;24605;50.092;9.182;2023-06-22T04:03:19;11.38;;;9.57;;
38851;SDS011;24605;50.092;9.182;2023-06-22T04:05:47;12.57;;;9.98;;
38851;SDS011;24605;50.092;9.182;2023-06-22T04:08:13;12.70;;;9.98;;
38851;SDS011;24605;50.092;9.182;2023-06-22T04:10:40;12.63;;;9.63;;
38851;SDS011;24605;50.092;9.182;2023-06-22T04:13:07;11.10;;;9.02;;
38851;SDS011;24605;50.092;9.182;2023-06-22T04:15:33;13.45;;;9.82;;
38851;SDS011;24605;50.092;9.182;2023-06-22T04:18:00;12.20;;;9.93;;
38851;SDS011;24605;50.092;9.182;2023-06-22T04:20:27;13.00;;;10.35;;
38851;SDS011;24605;50.092;9.182;2023-06-22T04:22:55;13.88;;;9.52;;
38851;SDS011;24605;50.092;9.182;2023-06-22T04:25:21;11.30;;;9.00;;
38851;SDS011;24605;50.092;9.182;2023-06-22T04:27:48;12.70;;;9.38;;
38851;SDS011;24605;50.092;9.182;2023-06-22T04:30:14;12.38;;;10.10;;
38851;SDS011;24605;50.092;9.182;2023-06-22T04:32:42;10.85;;;8.70;;
38851;SDS011;24605;50.092;9.182;2023-06-22T04:35:08;12.65;;;8.48;;
38851;SDS011;24605;50.092;9.182;2023-06-22T04:37:35;11.95;;;8.32;;
38851;SDS011;24605;50.092;9.182;2023-06-22T04:40:03;12.43;;;9.40;;
38851;SDS011;24605;50.092;9.182;2023-06-22T04:42:30;11.02;;;9.05;;
38851;SDS011;24605;50.092;9.182;2023-06-22T04:45:00;11.95;;;8.95;;
38851;SDS011;24605;50.092;9.182;2023-06-22T04:47:26;11.95;;;8.85;;
38851;SDS011;24605;50.092;9.182;2023-06-22T04:49:53;12.30;;;8.75;;
38851;SDS011;24605;50.092;9.182;2023-06-22T04:52:19;12.90;;;9.45;;
38851;SDS011;24605;50.092;9.182;2023-06-22T04:54:45;10.75;;;8.43;;
38851;SDS011;24605;50.092;9.182;2023-06-22T04:57:15;14.00;;;9.85;;
38851;SDS011;24605;50.092;9.182;2023-06-22T04:59:42;10.63;;;8.70;;
38851;SDS011;24605;50.092;9.182;2023-06-22T05:02:09;11.50;;;8.75;;
38851;SDS011;24605;50.092;9.182;2023-06-22T05:04:36;11.25;;;8.65;;
38851;SDS011;24605;50.092;9.182;2023-06-22T05:07:03;10.98;;;8.38;;
38851;SDS011;24605;50.092;9.182;2023-06-22T05:09:30;8.73;;;7.50;;
38851;SDS011;24605;50.092;9.182;2023-06-22T05:11:58;9.55;;;7.65;;
38851;SDS011;24605;50.092;9.182;2023-06-22T05:14:28;11.98;;;9.15;;
38851;SDS011;24605;50.092;9.182;2023-06-22T05:16:55;11.20;;;8.70;;
38851;SDS011;24605;50.092;9.182;2023-06-22T05:19:23;11.70;;;8.88;;
38851;SDS011;24605;50.092;9.182;2023-06-22T05:21:50;11.77;;;8.20;;
38851;SDS011;24605;50.092;9.182;2023-06-22T05:24:16;11.88;;;7.82;;
38851;SDS011;24605;50.092;9.182;2023-06-22T05:26:43;10.85;;;8.05;;
38851;SDS011;24605;50.092;9.182;2023-06-22T05:29:09;15.20;;;8.25;;
38851;SDS011;24605;50.092;9.182;2023-06-22T05:31:37;12.55;;;8.02;;
38851;SDS011;24605;50.092;9.182;2023-06-22T05:34:05;11.55;;;8.45;;
38851;SDS011;24605;50.092;9.182;2023-06-22T05:36:31;12.68;;;8.35;;
38851;SDS011;24605;50.092;9.182;2023-06-22T05:38:58;12.10;;;8.93;;
38851;SDS011;24605;50.092;9.182;2023-06-22T05:41:24;12.80;;;8.93;;
38851;SDS011;24605;50.092;9.182;2023-06-22T05:43:50;12.75;;;8.70;;
38851;SDS011;24605;50.092;9.182;2023-06-22T05:46:17;11.73;;;8.18;;
38851;SDS011;24605;50.092;9.182;2023-06-22T05:48:46;10.10;;;8.07;;
38851;SDS011;24605;50.092;9.182;2023-06-22T05:51:12;10.38;;;8.30;;
38851;SDS011;24605;50.092;9.182;2023-06-22T05:53:39;11.48;;;7.97;;
38851;SDS011;24605;50.092;9.182;2023-06-22T05:56:05;10.85;;;8.52;;
38851;SDS011;24605;50.092;9.182;2023-06-22T05:58:32;12.13;;;8.70;;
38851;SDS011;24605;50.092;9.182;2023-06-22T06:00:58;10.73;;;7.93;;
38851;SDS011;24605;50.092;9.182;2023-06-22T06:03:38;12.43;;;8.55;;
38851;SDS011;24605;50.092;9.182;2023-06-22T06:06:07;9.88;;;7.50;;
38851;SDS011;24605;50.092;9.182;2023-06-22T06:08:35;11.88;;;7.65;;
38851;SDS011;24605;50.092;9.182;2023-06-22T06:11:02;11.80;;;8.65;;
38851;SDS011;24605;50.092;9.182;2023-06-22T06:13:28;11.30;;;8.02;;
38851;SDS011;24605;50.092;9.182;2023-06-22T06:15:55;10.27;;;8.57;;
38851;SDS011;24605;50.092;9.182;2023-06-22T06:18:22;11.10;;;8.40;;
38851;SDS011;24605;50.092;9.182;2023-06-22T06:20:49;11.07;;;8.10;;
38851;SDS011;24605;50.092;9.182;2023-06-22T06:23:16;10.52;;;8.85;;
38851;SDS011;24605;50.092;9.182;2023-06-22T06:25:43;10.30;;;7.88;;
38851;SDS011;24605;50.092;9.182;2023-06-22T06:28:09;16.40;;;9.27;;
38851;SDS011;24605;50.092;9.182;2023-06-22T06:30:36;11.20;;;8.55;;
38851;SDS011;24605;50.092;9.182;2023-06-22T06:33:03;11.55;;;7.97;;
38851;SDS011;24605;50.092;9.182;2023-06-22T06:35:33;11.63;;;7.72;;
38851;SDS011;24605;50.092;9.182;2023-06-22T06:38:00;11.00;;;8.60;;
38851;SDS011;24605;50.092;9.182;2023-06-22T06:40:28;10.38;;;8.55;;
38851;SDS011;24605;50.092;9.182;2023-06-22T06:42:55;12.82;;;8.07;;
38851;SDS011;24605;50.092;9.182;2023-06-22T06:45:22;9.75;;;8.10;;
38851;SDS011;24605;50.092;9.182;2023-06-22T06:47:50;8.77;;;7.10;;
38851;SDS011;24605;50.092;9.182;2023-06-22T06:50:17;12.25;;;8.00;;
38851;SDS011;24605;50.092;9.182;2023-06-22T06:52:44;9.50;;;7.85;;
38851;SDS011;24605;50.092;9.182;2023-06-22T06:55:11;10.50;;;7.88;;
38851;SDS011;24605;50.092;9.182;2023-06-22T06:57:40;12.82;;;7.88;;
38851;SDS011;24605;50.092;9.182;2023-06-22T07:00:08;10.10;;;8.10;;
38851;SDS011;24605;50.092;9.182;2023-06-22T07:02:37;11.98;;;8.20;;
38851;SDS011;24605;50.092;9.182;2023-06-22T07:05:04;11.63;;;7.88;;
38851;SDS011;24605;50.092;9.182;2023-06-22T07:07:31;12.25;;;7.78;;
38851;SDS011;24605;50.092;9.182;2023-06-22T07:09:57;9.43;;;7.63;;
38851;SDS011;24605;50.092;9.182;2023-06-22T07:12:23;11.45;;;8.45;;
38851;SDS011;24605;50.092;9.182;2023-06-22T07:14:51;10.52;;;7.97;;
38851;SDS011;24605;50.092;9.182;2023-06-22T07:17:18;10.45;;;7.47;;
38851;SDS011;24605;50.092;9.182;2023-06-22T07:19:45;10.18;;;8.02;;
38851;SDS011;24605;50.092;9.182;2023-06-22T07:22:11;9.48;;;7.80;;
38851;SDS011;24605;50.092;9.182;2023-06-22T07:24:37;11.02;;;7.93;;
38851;SDS011;24605;50.092;9.182;2023-06-22T07:27:04;10.57;;;7.95;;
38851;SDS011;24605;50.092;9.182;2023-06-22T07:29:31;9.55;;;7.47;;
38851;SDS011;24605;50.092;9.182;2023-06-22T07:31:59;9.98;;;7.50;;
38851;SDS011;24605;50.092;9.182;2023-06-22T07:34:29;9.55;;;8.10;;
38851;SDS011;24605;50.092;9.182;2023-06-22T07:36:56;12.70;;;8.13;;
38851;SDS011;24605;50.092;9.182;2023-06-22T07:39:22;10.50;;;7.65;;
38851;SDS011;24605;50.092;9.182;2023-06-22T07:41:51;10.70;;;7.28;;
38851;SDS011;24605;50.092;9.182;2023-06-22T07:44:17;10.60;;;7.85;;
38851;SDS011;24605;50.092;9.182;2023-06-22T07:46:44;11.07;;;7.63;;
38851;SDS011;24605;50.092;9.182;2023-06-22T07:49:12;11.00;;;7.30;;
38851;SDS011;24605;50.092;9.182;2023-06-22T07:51:38;9.77;;;7.25;;
38851;SDS011;24605;50.092;9.182;2023-06-22T07:54:05;9.80;;;7.45;;
38851;SDS011;24605;50.092;9.182;2023-06-22T07:56:32;8.82;;;7.22;;
38851;SDS011;24605;50.092;9.182;2023-06-22T07:58:58;10.02;;;7.38;;
38851;SDS011;24605;50.092;9.182;2023-06-22T08:01:26;9.02;;;7.22;;
38851;SDS011;24605;50.092;9.182;2023-06-22T08:03:53;9.43;;;6.95;;
38851;SDS011;24605;50.092;9.182;2023-06-22T08:06:21;9.70;;;7.00;;
38851;SDS011;24605;50.092;9.182;2023-06-22T08:08:47;11.13;;;6.65;;
38851;SDS011;24605;50.092;9.182;2023-06-22T08:11:14;10.48;;;6.93;;
38851;SDS011;24605;50.092;9.182;2023-06-22T08:13:40;10.98;;;7.75;;
38851;SDS011;24605;50.092;9.182;2023-06-22T08:16:07;9.98;;;6.97;;
38851;SDS011;24605;50.092;9.182;2023-06-22T08:18:33;9.70;;;6.70;;
38851;SDS011;24605;50.092;9.182;2023-06-22T08:21:00;10.00;;;6.78;;
38851;SDS011;24605;50.092;9.182;2023-06-22T08:23:28;10.85;;;7.40;;
38851;SDS011;24605;50.092;9.182;2023-06-22T08:25:54;9.02;;;7.05;;
38851;SDS011;24605;50.092;9.182;2023-06-22T08:28:21;9.90;;;6.47;;
38851;SDS011;24605;50.092;9.182;2023-06-22T08:30:48;10.60;;;7.03;;
38851;SDS011;24605;50.092;9.182;2023-06-22T08:33:14;9.95;;;7.15;;
38851;SDS011;24605;50.092;9.182;2023-06-22T08:35:41;9.43;;;7.07;;
38851;SDS011;24605;50.092;9.182;2023-06-22T08:38:07;10.13;;;6.93;;
38851;SDS011;24605;50.092;9.182;2023-06-22T08:40:35;8.93;;;6.75;;
38851;SDS011;24605;50.092;9.182;2023-06-22T08:43:02;8.52;;;6.35;;
38851;SDS011;24605;50.092;9.182;2023-06-22T08:45:28;8.15;;;6.93;;
38851;SDS011;24605;50.092;9.182;2023-06-22T08:47:55;9.02;;;6.53;;
38851;SDS011;24605;50.092;9.182;2023-06-22T08:50:21;9.95;;;7.13;;
38851;SDS011;24605;50.092;9.182;2023-06-22T08:52:48;10.40;;;6.50;;
38851;SDS011;24605;50.092;9.182;2023-06-22T08:55:14;11.57;;;6.80;;
38851;SDS011;24605;50.092;9.182;2023-06-22T08:57:42;10.45;;;6.75;;
38851;SDS011;24605;50.092;9.182;2023-06-22T09:00:09;9.38;;;6.55;;
38851;SDS011;24605;50.092;9.182;2023-06-22T09:02:42;10.35;;;6.93;;
38851;SDS011;24605;50.092;9.182;2023-06-22T09:05:08;8.15;;;6.40;;
38851;SDS011;24605;50.092;9.182;2023-06-22T09:07:35;9.20;;;6.80;;
38851;SDS011;24605;50.092;9.182;2023-06-22T09:10:02;8.70;;;6.97;;
38851;SDS011;24605;50.092;9.182;2023-06-22T09:12:30;9.27;;;6.68;;
38851;SDS011;24605;50.092;9.182;2023-06-22T09:14:59;8.00;;;6.47;;
38851;SDS011;24605;50.092;9.182;2023-06-22T09:17:27;9.55;;;7.05;;
38851;SDS011;24605;50.092;9.182;2023-06-22T09:19:53;11.27;;;6.95;;
38851;SDS011;24605;50.092;9.182;2023-06-22T09:22:20;10.77;;;6.60;;
38851;SDS011;24605;50.092;9.182;2023-06-22T09:24:47;8.98;;;7.40;;
38851;SDS011;24605;50.092;9.182;2023-06-22T09:27:13;11.65;;;7.43;;
38851;SDS011;24605;50.092;9.182;2023-06-22T09:29:40;9.07;;;7.13;;
38851;SDS011;24605;50.092;9.182;2023-06-22T09:32:08;13.80;;;7.65;;
38851;SDS011;24605;50.092;9.182;2023-06-22T09:34:35;8.75;;;7.13;;
38851;SDS011;24605;50.092;9.182;2023-06-22T09:37:01;11.23;;;7.50;;
38851;SDS011;24605;50.092;9.182;2023-06-22T09:39:28;9.70;;;7.00;;
38851;SDS011;24605;50.092;9.182;2023-06-22T09:41:54;8.45;;;6.43;;
38851;SDS011;24605;50.092;9.182;2023-06-22T09:44:20;14.20;;;7.72;;
38851;SDS011;24605;50.092;9.182;2023-06-22T09:46:47;11.80;;;6.43;;
38851;SDS011;24605;50.092;9.182;2023-06-22T09:49:15;9.73;;;6.75;;
38851;SDS011;24605;50.092;9.182;2023-06-22T09:51:41;9.13;;;6.85;;
38851;SDS011;24605;50.092;9.182;2023-06-22T09:54:07;8.88;;;7.15;;
38851;SDS011;24605;50.092;9.182;2023-06-22T09:56:34;11.77;;;7.00;;
38851;SDS011;24605;50.092;9.182;2023-06-22T09:59:02;9.88;;;7.13;;
38851;SDS011;24605;50.092;9.182;2023-06-22T10:01:29;9.38;;;6.20;;
38851;SDS011;24605;50.092;9.182;2023-06-22T10:03:55;7.97;;;6.20;;
38851;SDS011;24605;50.092;9.182;2023-06-22T10:06:24;9.85;;;6.78;;
38851;SDS011;24605;50.092;9.182;2023-06-22T10:08:50;10.05;;;7.10;;
38851;SDS011;24605;50.092;9.182;2023-06-22T10:11:17;11.38;;;6.72;;
38851;SDS011;24605;50.092;9.182;2023-06-22T10:13:44;9.75;;;6.20;;
38851;SDS011;24605;50.092;9.182;2023-06-22T10:16:10;11.57;;;6.43;;
38851;SDS011;24605;50.092;9.182;2023-06-22T10:18:37;9.27;;;6.90;;
38851;SDS011;24605;50.092;9.182;2023-06-22T10:21:03;9.43;;;7.13;;
38851;SDS011;24605;50.092;9.182;2023-06-22T10:23:31;10.88;;;6.43;;
38851;SDS011;24605;50.092;9.182;2023-06-22T10:25:57;12.90;;;6.50;;
38851;SDS011;24605;50.092;9.182;2023-06-22T10:28:24;8.50;;;6.47;;
38851;SDS011;24605;50.092;9.182;2023-06-22T10:30:50;13.35;;;6.97;;
38851;SDS011;24605;50.092;9.182;2023-06-22T10:33:17;9.85;;;6.68;;
38851;SDS011;24605;50.092;9.182;2023-06-22T10:35:43;8.43;;;6.53;;
38851;SDS011;24605;50.092;9.182;2023-06-22T10:38:10;11.40;;;7.13;;
38851;SDS011;24605;50.092;9.182;2023-06-22T10:40:38;9.88;;;6.70;;
38851;SDS011;24605;50.092;9.182;2023-06-22T10:43:05;7.90;;;6.72;;
38851;SDS011;24605;50.092;9.182;2023-06-22T10:45:31;11.68;;;6.80;;
38851;SDS011;24605;50.092;9.182;2023-06-22T10:47:58;11.23;;;7.18;;
38851;SDS011;24605;50.092;9.182;2023-06-22T10:50:24;11.13;;;7.07;;
38851;SDS011;24605;50.092;9.182;2023-06-22T10:52:51;9.90;;;6.38;;
38851;SDS011;24605;50.092;9.182;2023-06-22T10:55:18;11.10;;;7.10;;
38851;SDS011;24605;50.092;9.182;2023-06-22T10:57:46;12.00;;;7.20;;
38851;SDS011;24605;50.092;9.182;2023-06-22T11:00:13;8.45;;;6.88;;
38851;SDS011;24605;50.092;9.182;2023-06-22T11:02:40;10.43;;;6.90;;
38851;SDS011;24605;50.092;9.182;2023-06-22T11:05:07;10.40;;;6.97;;
38851;SDS011;24605;50.092;9.182;2023-06-22T11:07:34;11.85;;;7.20;;
38851;SDS011;24605;50.092;9.182;2023-06-22T11:10:00;11.82;;;7.00;;
38851;SDS011;24605;50.092;9.182;2023-06-22T11:12:27;12.00;;;6.50;;
38851;SDS011;24605;50.092;9.182;2023-06-22T11:14:55;10.88;;;7.25;;
38851;SDS011;24605;50.092;9.182;2023-06-22T11:17:22;11.60;;;6.85;;
38851;SDS011;24605;50.092;9.182;2023-06-22T11:19:48;11.07;;;6.95;;
38851;SDS011;24605;50.092;9.182;2023-06-22T11:22:15;10.55;;;6.68;;
38851;SDS011;24605;50.092;9.182;2023-06-22T11:24:41;11.68;;;6.75;;
38851;SDS011;24605;50.092;9.182;2023-06-22T11:27:08;11.23;;;7.00;;
38851;SDS011;24605;50.092;9.182;2023-06-22T11:29:34;14.00;;;7.30;;
38851;SDS011;24605;50.092;9.182;2023-06-22T11:32:02;10.65;;;6.32;;
38851;SDS011;24605;50.092;9.182;2023-06-22T11:34:29;10.45;;;6.90;;
38851;SDS011;24605;50.092;9.182;2023-06-22T11:36:55;11.00;;;7.15;;
38851;SDS011;24605;50.092;9.182;2023-06-22T11:39:22;11.40;;;7.25;;
38851;SDS011;24605;50.092;9.182;2023-06-22T11:41:48;12.30;;;7.97;;
38851;SDS011;24605;50.092;9.182;2023-06-22T11:44:15;10.60;;;7.13;;
38851;SDS011;24605;50.092;9.182;2023-06-22T11:46:41;12.05;;;7.93;;
38851;SDS011;24605;50.092;9.182;2023-06-22T11:49:09;14.50;;;7.15;;
38851;SDS011;24605;50.092;9.182;2023-06-22T11:51:35;13.23;;;7.43;;
38851;SDS011;24605;50.092;9.182;2023-06-22T11:54:02;11.35;;;7.93;;
38851;SDS011;24605;50.092;9.182;2023-06-22T11:56:28;11.23;;;7.40;;
38851;SDS011;24605;50.092;9.182;2023-06-22T11:58:55;10.25;;;7.57;;
38851;SDS011;24605;50.092;9.182;2023-06-22T12:01:21;10.82;;;7.32;;
38851;SDS011;24605;50.092;9.182;2023-06-22T12:03:48;9.60;;;7.68;;
38851;SDS011;24605;50.092;9.182;2023-06-22T12:06:16;11.45;;;7.95;;
38851;SDS011;24605;50.092;9.182;2023-06-22T12:08:42;11.82;;;7.95;;
38851;SDS011;24605;50.092;9.182;2023-06-22T12:11:09;14.50;;;8.48;;
38851;SDS011;24605;50.092;9.182;2023-06-22T12:13:35;10.02;;;8.00;;
38851;SDS011;24605;50.092;9.182;2023-06-22T12:16:01;15.40;;;8.02;;
38851;SDS011;24605;50.092;9.182;2023-06-22T12:18:28;11.63;;;8.15;;
38851;SDS011;24605;50.092;9.182;2023-06-22T12:20:54;13.68;;;7.82;;
38851;SDS011;24605;50.092;9.182;2023-06-22T12:23:22;12.82;;;7.90;;
38851;SDS011;24605;50.092;9.182;2023-06-22T12:25:48;12.45;;;7.85;;
38851;SDS011;24605;50.092;9.182;2023-06-22T12:28:15;12.20;;;7.45;;
38851;SDS011;24605;50.092;9.182;2023-06-22T12:30:42;11.93;;;7.78;;
38851;SDS011;24605;50.092;9.182;2023-06-22T12:33:08;12.98;;;7.95;;
38851;SDS011;24605;50.092;9.182;2023-06-22T12:35:35;14.40;;;7.90;;
38851;SDS011;24605;50.092;9.182;2023-06-22T12:38:01;14.18;;;8.10;;
38851;SDS011;24605;50.092;9.182;2023-06-22T12:40:29;11.40;;;7.90;;
38851;SDS011;24605;50.092;9.182;2023-06-22T12:42:56;13.35;;;7.57;;
38851;SDS011;24605;50.092;9.182;2023-06-22T12:45:22;11.82;;;7.60;;
38851;SDS011;24605;50.092;9.182;2023-06-22T12:47:49;9.60;;;6.70;;
38851;SDS011;24605;50.092;9.182;2023-06-22T12:50:16;12.18;;;6.88;;
38851;SDS011;24605;50.092;9.182;2023-06-22T12:52:42;13.27;;;7.15;;
38851;SDS011;24605;50.092;9.182;2023-06-22T12:55:09;10.98;;;7.22;;
38851;SDS011;24605;50.092;9.182;2023-06-22T12:57:37;14.68;;;7.40;;
38851;SDS011;24605;50.092;9.182;2023-06-22T13:00:04;12.52;;;7.40;;
38851;SDS011;24605;50.092;9.182;2023-06-22T13:02:33;10.68;;;6.45;;
38851;SDS011;24605;50.092;9.182;2023-06-22T13:04:59;9.70;;;6.57;;
38851;SDS011;24605;50.092;9.182;2023-06-22T13:07:25;12.07;;;6.85;;
38851;SDS011;24605;50.092;9.182;2023-06-22T13:09:52;14.82;;;7.22;;
38851;SDS011;24605;50.092;9.182;2023-06-22T13:12:19;11.20;;;6.85;;
38851;SDS011;24605;50.092;9.182;2023-06-22T13:14:47;9.93;;;6.53;;
38851;SDS011;24605;50.092;9.182;2023-06-22T13:17:14;11.40;;;6.20;;
38851;SDS011;24605;50.092;9.182;2023-06-22T13:19:41;11.38;;;6.30;;
38851;SDS011;24605;50.092;9.182;2023-06-22T13:22:24;12.60;;;5.97;;
38851;SDS011;24605;50.092;9.182;2023-06-22T13:24:52;14.57;;;6.18;;
38851;SDS011;24605;50.092;9.182;2023-06-22T13:27:19;13.65;;;6.97;;
38851;SDS011;24605;50.092;9.182;2023-06-22T13:29:45;11.02;;;5.72;;
38851;SDS011;24605;50.092;9.182;2023-06-22T13:32:13;9.13;;;6.05;;
38851;SDS011;24605;50.092;9.182;2023-06-22T13:34:39;14.15;;;6.05;;
38851;SDS011;24605;50.092;9.182;2023-06-22T13:37:06;11.25;;;6.15;;
38851;SDS011;24605;50.092;9.182;2023-06-22T13:39:32;12.55;;;5.75;;
38851;SDS011;24605;50.092;9.182;2023-06-22T13:41:59;10.65;;;6.05;;
38851;SDS011;24605;50.092;9.182;2023-06-22T13:44:25;10.35;;;5.88;;
38851;SDS011;24605;50.092;9.182;2023-06-22T13:46:53;12.00;;;6.13;;
38851;SDS011;24605;50.092;9.182;2023-06-22T13:49:21;9.35;;;5.47;;
38851;SDS011;24605;50.092;9.182;2023-06-22T13:51:48;11.27;;;5.78;;
38851;SDS011;24605;50.092;9.182;2023-06-22T13:54:15;10.93;;;4.82;;
38851;SDS011;24605;50.092;9.182;2023-06-22T13:56:42;12.15;;;5.20;;
38851;SDS011;24605;50.092;9.182;2023-06-22T13:59:09;11.90;;;5.30;;
38851;SDS011;24605;50.092;9.182;2023-06-22T14:01:36;10.30;;;4.90;;
38851;SDS011;24605;50.092;9.182;2023-06-22T14:04:03;12.43;;;5.47;;
38851;SDS011;24605;50.092;9.182;2023-06-22T14:06:31;9.90;;;5.72;;
38851;SDS011;24605;50.092;9.182;2023-06-22T14:08:58;13.30;;;5.50;;
38851;SDS011;24605;50.092;9.182;2023-06-22T14:11:24;8.48;;;5.15;;
38851;SDS011;24605;50.092;9.182;2023-06-22T14:13:51;10.65;;;5.00;;
38851;SDS011;24605;50.092;9.182;2023-06-22T14:16:18;10.80;;;5.63;;
38851;SDS011;24605;50.092;9.182;2023-06-22T14:18:44;10.75;;;5.45;;
38851;SDS011;24605;50.092;9.182;2023-06-22T14:21:11;11.32;;;5.07;;
38851;SDS011;24605;50.092;9.182;2023-06-22T14:23:39;9.32;;;5.03;;
38851;SDS011;24605;50.092;9.182;2023-06-22T14:26:05;8.00;;;4.78;;
38851;SDS011;24605;50.092;9.182;2023-06-22T14:28:32;11.80;;;5.45;;
38851;SDS011;24605;50.092;9.182;2023-06-22T14:30:58;9.77;;;5.03;;
38851;SDS011;24605;50.092;9.182;2023-06-22T14:33:25;11.57;;;4.55;;
38851;SDS011;24605;50.092;9.182;2023-06-22T14:35:51;11.23;;;5.18;;